createdAt,value
2023-01-18T00:01:11.149Z,16.95
2023-01-18T00:03:38.157Z,17.27
2023-01-18T00:06:07.207Z,16.85
2023-01-18T00:08:35.187Z,17.50
2023-01-18T00:11:12.406Z,17.08
2023-01-18T00:13:39.341Z,17.98
2023-01-18T00:16:27.728Z,17.75
2023-01-18T00:18:56.376Z,17.35
2023-01-18T00:21:23.545Z,17.38
2023-01-18T00:23:50.222Z,17.70
2023-01-18T00:26:16.712Z,16.48
2023-01-18T00:28:43.145Z,17.60
2023-01-18T00:31:17.092Z,17.00
2023-01-18T00:33:44.494Z,17.88
2023-01-18T00:36:11.488Z,17.10
2023-01-18T00:38:37.882Z,17.77
2023-01-18T00:41:04.483Z,17.50
2023-01-18T00:43:39.873Z,16.70
2023-01-18T00:46:14.772Z,16.80
2023-01-18T00:48:41.958Z,16.73
2023-01-18T00:51:10.611Z,17.30
2023-01-18T00:53:39.797Z,18.00
2023-01-18T00:56:07.378Z,17.17
2023-01-18T00:58:33.751Z,16.02
2023-01-18T01:01:00.200Z,15.70
2023-01-18T01:03:26.653Z,15.73
2023-01-18T01:06:11.679Z,17.40
2023-01-18T01:08:38.086Z,19.33
2023-01-18T01:11:10.112Z,20.45
2023-01-18T01:13:55.491Z,21.73
2023-01-18T01:16:40.738Z,20.13
2023-01-18T01:19:25.863Z,22.33
2023-01-18T01:22:11.180Z,21.48
2023-01-18T01:24:56.200Z,23.42
2023-01-18T01:27:22.597Z,23.10
2023-01-18T01:29:49.062Z,21.65
2023-01-18T01:32:15.423Z,22.55
2023-01-18T01:34:41.814Z,22.58
2023-01-18T01:37:08.309Z,21.70
2023-01-18T01:39:34.689Z,21.73
2023-01-18T01:42:01.181Z,22.00
2023-01-18T01:44:29.909Z,21.60
2023-01-18T01:47:03.382Z,21.60
2023-01-18T01:49:33.003Z,21.25
2023-01-18T01:52:04.768Z,20.75
2023-01-18T01:54:31.043Z,21.30
2023-01-18T01:57:06.060Z,21.35
2023-01-18T01:59:34.310Z,21.92
2023-01-18T02:02:01.011Z,21.42
2023-01-18T02:04:27.498Z,20.73
2023-01-18T02:06:53.905Z,19.88
2023-01-18T02:09:23.185Z,20.73
2023-01-18T02:11:51.701Z,20.00
2023-01-18T02:14:20.419Z,20.25
2023-01-18T02:16:54.094Z,19.63
2023-01-18T02:19:59.587Z,19.67
2023-01-18T02:22:54.239Z,19.60
2023-01-18T02:25:44.306Z,18.80
2023-01-18T02:28:21.026Z,19.45
2023-01-18T02:30:47.357Z,19.85
2023-01-18T02:33:30.850Z,20.15
2023-01-18T02:35:57.927Z,18.65
2023-01-18T02:38:45.201Z,19.25
2023-01-18T02:41:52.356Z,17.27
2023-01-18T02:44:43.834Z,18.45
2023-01-18T02:47:10.339Z,18.42
2023-01-18T02:49:36.733Z,18.67
2023-01-18T02:52:05.347Z,18.98
2023-01-18T02:54:36.312Z,18.63
2023-01-18T02:57:05.779Z,18.50
2023-01-18T02:59:38.326Z,19.23
2023-01-18T03:02:19.503Z,18.05
2023-01-18T03:04:54.628Z,18.00
2023-01-18T03:07:31.230Z,17.33
2023-01-18T03:09:58.660Z,18.13
2023-01-18T03:12:27.984Z,18.25
2023-01-18T03:15:06.054Z,17.98
2023-01-18T03:17:41.781Z,18.75
2023-01-18T03:20:11.403Z,18.27
2023-01-18T03:22:58.591Z,17.83
2023-01-18T03:25:33.643Z,18.55
2023-01-18T03:28:22.616Z,18.73
2023-01-18T03:31:09.545Z,17.92
2023-01-18T03:33:46.114Z,17.55
2023-01-18T03:36:18.131Z,17.75
2023-01-18T03:38:47.102Z,18.25
2023-01-18T03:41:14.230Z,17.95
2023-01-18T03:43:41.914Z,18.48
2023-01-18T03:46:08.672Z,19.25
2023-01-18T03:48:36.514Z,20.45
2023-01-18T03:51:12.328Z,21.67
2023-01-18T03:54:04.891Z,21.67
2023-01-18T03:56:49.664Z,21.58
2023-01-18T03:59:16.431Z,21.73
2023-01-18T04:01:44.902Z,22.50
2023-01-18T04:04:11.385Z,22.42
2023-01-18T04:06:37.780Z,21.83
2023-01-18T04:09:04.388Z,21.48
2023-01-18T04:11:30.745Z,21.30
2023-01-18T04:13:57.111Z,20.13
2023-01-18T04:16:23.522Z,22.35
2023-01-18T04:18:49.919Z,22.85
2023-01-18T04:21:16.310Z,23.98
2023-01-18T04:23:42.734Z,21.95
2023-01-18T04:26:09.108Z,22.73
2023-01-18T04:28:35.516Z,21.98
2023-01-18T04:31:01.994Z,22.02
2023-01-18T04:33:28.447Z,21.63
2023-01-18T04:35:54.857Z,20.35
2023-01-18T04:38:21.671Z,21.05
2023-01-18T04:40:48.040Z,21.23
2023-01-18T04:43:14.429Z,20.48
2023-01-18T04:45:40.807Z,20.45
2023-01-18T04:48:07.192Z,20.60
2023-01-18T04:50:33.638Z,21.17
2023-01-18T04:53:00.514Z,21.48
2023-01-18T04:55:27.244Z,20.80
2023-01-18T04:57:57.312Z,20.85
2023-01-18T05:00:24.158Z,21.48
2023-01-18T05:02:50.926Z,22.98
2023-01-18T05:05:17.370Z,21.20
2023-01-18T05:07:43.747Z,21.00
2023-01-18T05:10:10.593Z,21.40
2023-01-18T05:12:37.394Z,21.73
2023-01-18T05:15:05.746Z,22.23
2023-01-18T05:17:34.686Z,22.58
2023-01-18T05:20:02.136Z,22.20
2023-01-18T05:22:29.092Z,22.23
2023-01-18T05:24:55.688Z,20.95
2023-01-18T05:27:22.068Z,20.85
2023-01-18T05:29:48.490Z,20.90
2023-01-18T05:32:14.873Z,20.48
2023-01-18T05:34:42.233Z,21.98
2023-01-18T05:37:08.697Z,23.85
2023-01-18T05:39:35.075Z,23.80
2023-01-18T05:42:01.807Z,22.95
2023-01-18T05:44:28.308Z,23.92
2023-01-18T05:46:54.720Z,22.98
2023-01-18T05:49:21.087Z,22.83
2023-01-18T05:51:47.456Z,21.98
2023-01-18T05:54:13.836Z,22.17
2023-01-18T05:56:40.218Z,21.67
2023-01-18T05:59:06.580Z,21.60
2023-01-18T06:01:33.004Z,21.33
2023-01-18T06:03:59.442Z,21.20
2023-01-18T06:06:25.896Z,21.08
2023-01-18T06:08:52.261Z,20.98
2023-01-18T06:11:18.660Z,22.17
2023-01-18T06:13:45.058Z,22.20
2023-01-18T06:16:12.010Z,23.08
2023-01-18T06:18:39.507Z,25.33
2023-01-18T06:21:07.614Z,26.00
2023-01-18T06:23:35.105Z,26.67
2023-01-18T06:26:01.489Z,27.02
2023-01-18T06:28:30.382Z,29.02
2023-01-18T06:30:57.157Z,28.55
2023-01-18T06:33:24.360Z,27.30
2023-01-18T06:35:50.906Z,26.42
2023-01-18T06:38:17.334Z,26.05
2023-01-18T06:40:43.737Z,25.85
2023-01-18T06:43:13.761Z,23.83
2023-01-18T06:45:40.913Z,24.17
2023-01-18T06:48:07.610Z,23.48
2023-01-18T06:50:34.041Z,24.63
2023-01-18T06:53:00.778Z,26.30
2023-01-18T06:55:27.384Z,26.85
2023-01-18T06:57:54.915Z,27.25
2023-01-18T07:00:22.377Z,27.95
2023-01-18T07:02:51.353Z,31.10
2023-01-18T07:05:17.889Z,29.05
2023-01-18T07:07:45.667Z,28.58
2023-01-18T07:10:13.795Z,26.80
2023-01-18T07:12:41.322Z,26.83
2023-01-18T07:15:20.812Z,25.98
2023-01-18T07:17:48.076Z,25.70
2023-01-18T07:20:15.834Z,23.70
2023-01-18T07:22:42.636Z,24.80
2023-01-18T07:25:13.131Z,25.17
2023-01-18T07:27:43.035Z,24.48
2023-01-18T07:30:12.297Z,23.55
2023-01-18T07:32:39.328Z,24.77
2023-01-18T07:35:06.052Z,26.88
2023-01-18T07:37:33.802Z,27.98
2023-01-18T07:40:00.187Z,29.23
2023-01-18T07:42:26.576Z,28.90
2023-01-18T07:44:52.989Z,27.33
2023-01-18T07:47:19.399Z,25.73
2023-01-18T07:49:45.810Z,26.25
2023-01-18T07:52:12.193Z,26.83
2023-01-18T07:54:38.911Z,25.80
2023-01-18T07:57:05.356Z,25.52
2023-01-18T07:59:33.377Z,24.83
2023-01-18T08:01:59.794Z,25.70
2023-01-18T08:04:26.252Z,26.92
2023-01-18T08:06:52.643Z,26.92
2023-01-18T08:09:19.013Z,26.13
2023-01-18T08:11:45.381Z,25.40
2023-01-18T08:14:12.267Z,26.65
2023-01-18T08:16:38.672Z,26.48
2023-01-18T08:19:05.039Z,28.23
2023-01-18T08:21:31.946Z,27.92
2023-01-18T08:23:58.333Z,28.48
2023-01-18T08:26:24.836Z,27.13
2023-01-18T08:28:51.217Z,26.55
2023-01-18T08:31:20.183Z,27.00
2023-01-18T08:33:48.607Z,26.83
2023-01-18T08:36:17.577Z,26.63
2023-01-18T08:38:47.692Z,25.67
2023-01-18T08:41:14.048Z,25.65
2023-01-18T08:43:40.463Z,25.75
2023-01-18T08:46:06.905Z,26.42
2023-01-18T08:48:33.328Z,27.08
2023-01-18T08:51:01.121Z,26.92
2023-01-18T08:53:27.921Z,28.95
2023-01-18T08:55:54.453Z,31.38
2023-01-18T08:58:21.051Z,32.42
2023-01-18T09:00:50.493Z,31.08
2023-01-18T09:03:20.978Z,31.08
2023-01-18T09:05:47.405Z,32.15
2023-01-18T09:08:13.782Z,30.67
2023-01-18T09:10:40.148Z,27.38
2023-01-18T09:13:06.578Z,27.00
2023-01-18T09:15:32.946Z,26.55
2023-01-18T09:18:01.572Z,26.13
2023-01-18T09:20:28.246Z,25.85
2023-01-18T09:22:54.620Z,26.27
2023-01-18T09:25:20.982Z,25.52
2023-01-18T09:27:47.393Z,26.55
2023-01-18T09:30:16.009Z,26.17
2023-01-18T09:32:42.577Z,27.50
2023-01-18T09:35:09.394Z,26.52
2023-01-18T09:37:35.770Z,27.42
2023-01-18T09:40:02.346Z,28.00
2023-01-18T09:42:35.983Z,26.30
2023-01-18T09:45:03.540Z,25.60
2023-01-18T09:47:50.166Z,26.65
2023-01-18T09:50:25.603Z,26.45
2023-01-18T09:53:13.772Z,26.00
2023-01-18T09:55:56.753Z,25.00
2023-01-18T09:58:50.728Z,25.77
2023-01-18T10:01:19.545Z,25.67
2023-01-18T10:04:06.929Z,26.70
2023-01-18T10:06:55.056Z,25.58
2023-01-18T10:09:25.345Z,27.58
2023-01-18T10:12:37.991Z,25.77
2023-01-18T10:15:29.065Z,26.25
2023-01-18T10:17:57.628Z,25.92
2023-01-18T10:20:28.270Z,26.58
2023-01-18T10:23:02.838Z,26.33
2023-01-18T10:25:54.307Z,25.48
2023-01-18T10:28:33.021Z,26.98
2023-01-18T10:31:08.386Z,25.92
2023-01-18T10:33:42.056Z,25.73
2023-01-18T10:36:20.890Z,25.92
2023-01-18T10:38:48.101Z,25.95
2023-01-18T10:41:20.972Z,26.83
2023-01-18T10:43:47.545Z,27.23
2023-01-18T10:46:16.752Z,26.83
2023-01-18T10:48:48.237Z,25.35
2023-01-18T10:51:46.287Z,25.57
2023-01-18T10:54:18.654Z,25.05
2023-01-18T10:56:45.198Z,26.25
2023-01-18T10:59:33.798Z,26.15
2023-01-18T11:02:00.704Z,25.50
2023-01-18T11:04:31.756Z,26.50
2023-01-18T11:07:02.759Z,26.20
2023-01-18T11:09:42.809Z,25.80
2023-01-18T11:12:33.856Z,26.50
2023-01-18T11:15:15.278Z,27.23
2023-01-18T11:17:56.242Z,25.60
2023-01-18T11:20:25.557Z,25.42
2023-01-18T11:23:20.987Z,24.42
2023-01-18T11:26:12.104Z,24.20
2023-01-18T11:28:45.892Z,23.67
2023-01-18T11:31:18.198Z,24.20
2023-01-18T11:36:19.421Z,22.77
2023-01-18T11:38:46.384Z,24.92
2023-01-18T11:41:18.972Z,23.67
2023-01-18T11:43:56.282Z,21.55
2023-01-18T11:46:30.214Z,19.30
2023-01-18T11:49:05.238Z,20.13
2023-01-18T11:51:43.641Z,20.60
2023-01-18T11:54:27.076Z,20.55
2023-01-18T11:56:59.740Z,23.73
2023-01-18T11:59:30.289Z,27.15
2023-01-18T12:02:26.944Z,23.20
2023-01-18T12:05:22.476Z,25.42
2023-01-18T12:08:10.749Z,21.30
2023-01-18T12:10:51.389Z,20.63
2023-01-18T12:13:38.086Z,18.10
2023-01-18T12:16:08.149Z,20.00
2023-01-18T12:18:46.898Z,19.73
2023-01-18T12:21:23.962Z,19.30
2023-01-18T12:23:59.575Z,19.25
2023-01-18T12:26:47.033Z,19.13
2023-01-18T12:29:32.517Z,18.92
2023-01-18T12:32:29.968Z,20.13
2023-01-18T12:35:23.227Z,19.95
2023-01-18T12:37:52.813Z,20.65
2023-01-18T12:40:42.480Z,18.17
2023-01-18T12:43:33.447Z,19.27
2023-01-18T12:46:09.188Z,21.55
2023-01-18T12:48:54.245Z,21.08
2023-01-18T12:51:23.898Z,20.88
2023-01-18T12:53:56.541Z,20.33
2023-01-18T12:56:25.379Z,18.80
2023-01-18T12:58:56.412Z,18.73
2023-01-18T13:01:26.681Z,18.88
2023-01-18T13:03:58.276Z,17.17
2023-01-18T13:06:25.495Z,16.37
2023-01-18T13:08:56.857Z,16.83
2023-01-18T13:11:41.668Z,16.92
2023-01-18T13:14:33.455Z,17.05
2023-01-18T13:17:13.017Z,16.63
2023-01-18T13:19:42.964Z,15.55
2023-01-18T13:22:20.394Z,15.60
2023-01-18T13:25:16.370Z,15.80
2023-01-18T13:28:03.683Z,15.52
2023-01-18T13:30:37.477Z,15.82
2023-01-18T13:33:12.897Z,15.95
2023-01-18T13:35:53.621Z,15.70
2023-01-18T13:38:36.188Z,16.42
2023-01-18T13:41:08.373Z,16.33
2023-01-18T13:43:37.611Z,15.32
2023-01-18T13:46:07.056Z,15.00
2023-01-18T13:48:50.371Z,14.85
2023-01-18T13:51:36.743Z,15.40
2023-01-18T13:54:03.652Z,15.05
2023-01-18T13:56:30.938Z,15.32
2023-01-18T13:59:23.603Z,14.65
2023-01-18T14:01:50.728Z,13.98
2023-01-18T14:04:22.137Z,14.10
2023-01-18T14:06:49.599Z,13.35
2023-01-18T14:09:18.342Z,13.18
2023-01-18T14:11:55.693Z,13.20
2023-01-18T14:14:28.353Z,12.05
2023-01-18T14:16:59.051Z,12.90
2023-01-18T14:19:29.979Z,13.95
2023-01-18T14:22:14.253Z,17.48
2023-01-18T14:25:17.245Z,14.55
2023-01-18T14:27:47.280Z,14.82
2023-01-18T14:30:22.595Z,14.63
2023-01-18T14:33:16.682Z,14.75
2023-01-18T14:35:54.274Z,14.77
2023-01-18T14:38:21.047Z,15.05
2023-01-18T14:40:49.302Z,14.82
2023-01-18T14:43:32.212Z,14.75
2023-01-18T14:48:27.499Z,14.63
2023-01-18T14:50:55.075Z,15.57
2023-01-18T14:53:24.672Z,15.27
2023-01-18T14:56:01.887Z,15.88
2023-01-18T14:58:28.371Z,15.07
2023-01-18T15:00:54.771Z,16.50
2023-01-18T15:03:26.294Z,15.93
2023-01-18T15:06:16.882Z,15.87
2023-01-18T15:08:44.336Z,15.95
2023-01-18T15:11:11.718Z,15.15
2023-01-18T15:13:47.578Z,14.93
2023-01-18T15:16:18.817Z,15.68
2023-01-18T15:18:47.608Z,16.38
2023-01-18T15:21:20.605Z,16.40
2023-01-18T15:23:47.105Z,15.93
2023-01-18T15:29:26.315Z,16.30
2023-01-18T15:32:04.628Z,17.00
2023-01-18T15:34:33.429Z,17.25
2023-01-18T15:37:01.296Z,16.63
2023-01-18T15:39:27.819Z,17.73
2023-01-18T15:41:55.581Z,17.05
2023-01-18T15:44:32.329Z,16.77
2023-01-18T15:46:58.846Z,17.98
2023-01-18T15:49:25.421Z,18.50
2023-01-18T15:51:56.390Z,18.15
2023-01-18T15:54:25.600Z,17.02
2023-01-18T15:56:52.369Z,18.15
2023-01-18T15:59:23.627Z,17.88
2023-01-18T16:02:08.675Z,19.05
2023-01-18T16:04:35.423Z,19.35
2023-01-18T16:07:31.210Z,18.55
2023-01-18T16:10:34.650Z,18.58
2023-01-18T16:13:29.154Z,19.67
2023-01-18T16:16:20.666Z,18.48
2023-01-18T16:18:50.064Z,19.30
2023-01-18T16:21:40.263Z,19.35
2023-01-18T16:24:30.580Z,18.45
2023-01-18T16:26:59.158Z,18.40
2023-01-18T16:29:25.714Z,18.23
2023-01-18T16:31:52.103Z,19.00
2023-01-18T16:34:24.182Z,19.00
2023-01-18T16:36:52.241Z,18.88
2023-01-18T16:39:19.712Z,18.45
2023-01-18T16:41:52.656Z,18.38
2023-01-18T16:44:20.525Z,18.23
2023-01-18T16:46:47.815Z,18.67
2023-01-18T16:49:15.151Z,17.48
2023-01-18T16:51:41.583Z,18.08
2023-01-18T16:54:08.693Z,17.17
2023-01-18T16:56:35.076Z,16.98
2023-01-18T16:59:06.881Z,17.45
2023-01-18T17:01:33.453Z,16.90
2023-01-18T17:03:59.888Z,16.83
2023-01-18T17:06:26.423Z,15.88
2023-01-18T17:08:52.814Z,17.10
2023-01-18T17:11:19.187Z,15.98
2023-01-18T17:13:47.562Z,16.52
2023-01-18T17:16:16.892Z,16.60
2023-01-18T17:18:43.478Z,16.38
2023-01-18T17:21:10.400Z,16.95
2023-01-18T17:23:39.214Z,17.02
2023-01-18T17:26:07.294Z,15.98
2023-01-18T17:28:33.784Z,16.35
2023-01-18T17:31:00.367Z,16.63
2023-01-18T17:33:26.819Z,16.65
2023-01-18T17:35:54.604Z,16.92
2023-01-18T17:38:27.018Z,17.27
2023-01-18T17:40:55.507Z,17.70
2023-01-18T17:43:33.358Z,17.90
2023-01-18T17:46:06.073Z,17.75
2023-01-18T17:48:32.911Z,16.77
2023-01-18T17:50:59.323Z,17.73
2023-01-18T17:53:25.873Z,17.17
2023-01-18T17:55:52.408Z,16.85
2023-01-18T17:58:18.810Z,16.92
2023-01-18T18:00:45.288Z,16.50
2023-01-18T18:03:11.762Z,17.30
2023-01-18T18:05:38.249Z,17.38
2023-01-18T18:08:04.839Z,16.55
2023-01-18T18:10:31.335Z,16.42
2023-01-18T18:12:58.172Z,17.77
2023-01-18T18:15:24.991Z,16.60
2023-01-18T18:17:51.435Z,16.70
2023-01-18T18:20:17.960Z,16.73
2023-01-18T18:22:44.415Z,17.05
2023-01-18T18:25:10.815Z,16.77
2023-01-18T18:27:45.522Z,17.33
2023-01-18T18:30:13.056Z,16.15
2023-01-18T18:32:39.565Z,16.90
2023-01-18T18:35:14.781Z,16.38
2023-01-18T18:37:49.858Z,16.08
2023-01-18T18:40:16.553Z,16.38
2023-01-18T18:42:45.286Z,16.45
2023-01-18T18:45:16.306Z,17.38
2023-01-18T18:47:42.684Z,17.45
2023-01-18T18:50:09.683Z,17.05
2023-01-18T18:52:36.055Z,16.83
2023-01-18T18:55:02.515Z,17.13
2023-01-18T18:57:29.376Z,17.02
2023-01-18T18:59:55.775Z,16.65
2023-01-18T19:02:22.197Z,16.83
2023-01-18T19:04:48.620Z,16.55
2023-01-18T19:07:15.061Z,15.85
2023-01-18T19:09:41.442Z,16.85
2023-01-18T19:12:08.549Z,15.52
2023-01-18T19:14:34.952Z,15.70
2023-01-18T19:17:01.340Z,15.43
2023-01-18T19:19:27.806Z,16.30
2023-01-18T19:21:54.231Z,16.27
2023-01-18T19:24:20.641Z,16.00
2023-01-18T19:26:47.058Z,15.82
2023-01-18T19:29:13.510Z,15.55
2023-01-18T19:31:40.114Z,15.45
2023-01-18T19:34:06.613Z,15.63
2023-01-18T19:36:33.940Z,15.35
2023-01-18T19:39:02.243Z,15.13
2023-01-18T19:41:30.289Z,14.77
2023-01-18T19:43:56.878Z,15.13
2023-01-18T19:46:23.313Z,14.07
2023-01-18T19:48:49.705Z,14.32
2023-01-18T19:51:22.413Z,13.98
2023-01-18T19:53:51.685Z,13.27
2023-01-18T19:56:18.106Z,13.75
2023-01-18T19:58:44.497Z,12.50
2023-01-18T20:01:23.058Z,14.02
2023-01-18T20:03:56.905Z,13.38
2023-01-18T20:06:23.659Z,14.05
2023-01-18T20:08:53.995Z,12.93
2023-01-18T20:11:20.473Z,13.10
2023-01-18T20:13:50.434Z,13.63
2023-01-18T20:16:20.131Z,12.80
2023-01-18T20:18:48.587Z,13.63
2023-01-18T20:21:17.867Z,14.18
2023-01-18T20:23:45.513Z,14.23
2023-01-18T20:26:14.509Z,14.85
2023-01-18T20:28:41.795Z,14.90
2023-01-18T20:31:10.085Z,13.95
2023-01-18T20:33:38.049Z,14.02
2023-01-18T20:36:06.064Z,14.55
2023-01-18T20:38:33.296Z,14.23
2023-01-18T20:41:00.169Z,13.30
2023-01-18T20:43:26.790Z,14.38
2023-01-18T20:46:03.428Z,14.00
2023-01-18T20:48:29.854Z,14.15
2023-01-18T20:51:00.031Z,14.18
2023-01-18T20:53:27.580Z,13.68
2023-01-18T20:55:55.131Z,13.77
2023-01-18T20:58:22.650Z,13.85
2023-01-18T21:00:49.633Z,13.93
2023-01-18T21:03:19.507Z,13.68
2023-01-18T21:05:46.085Z,13.73
2023-01-18T21:08:12.733Z,13.98
2023-01-18T21:10:40.475Z,14.63
2023-01-18T21:13:08.359Z,14.10
2023-01-18T21:15:35.256Z,14.57
2023-01-18T21:18:04.101Z,13.55
2023-01-18T21:20:31.338Z,13.77
2023-01-18T21:22:58.529Z,13.93
2023-01-18T21:25:26.715Z,13.07
2023-01-18T21:27:53.481Z,13.35
2023-01-18T21:30:20.463Z,13.30
2023-01-18T21:32:47.322Z,13.23
2023-01-18T21:35:14.175Z,13.68
2023-01-18T21:37:40.946Z,12.98
2023-01-18T21:40:09.905Z,12.88
2023-01-18T21:42:59.106Z,13.48
2023-01-18T21:45:44.342Z,13.32
2023-01-18T21:48:10.753Z,12.55
2023-01-18T21:50:59.328Z,12.65
2023-01-18T21:53:44.415Z,12.30
2023-01-18T21:56:10.856Z,12.02
2023-01-18T21:58:57.879Z,12.80
2023-01-18T22:01:37.550Z,11.75
2023-01-18T22:04:27.448Z,12.30
2023-01-18T22:06:54.129Z,11.52
2023-01-18T22:09:20.754Z,12.00
2023-01-18T22:11:47.200Z,11.10
2023-01-18T22:14:13.678Z,11.65
2023-01-18T22:16:40.235Z,11.13
2023-01-18T22:19:06.858Z,11.15
2023-01-18T22:21:33.670Z,10.98
2023-01-18T22:24:00.390Z,11.65
2023-01-18T22:26:28.369Z,10.98
2023-01-18T22:28:55.094Z,10.25
2023-01-18T22:31:21.537Z,10.75
2023-01-18T22:33:48.356Z,10.88
2023-01-18T22:36:15.948Z,11.27
2023-01-18T22:38:43.773Z,10.98
2023-01-18T22:41:12.833Z,11.30
2023-01-18T22:43:39.842Z,10.85
2023-01-18T22:46:07.376Z,10.02
2023-01-18T22:48:34.967Z,11.25
2023-01-18T22:51:01.890Z,10.95
2023-01-18T22:53:30.980Z,10.63
2023-01-18T22:56:04.978Z,10.45
2023-01-18T22:58:31.381Z,10.70
2023-01-18T23:00:57.866Z,10.32
2023-01-18T23:03:24.329Z,10.57
2023-01-18T23:05:58.257Z,10.68
2023-01-18T23:08:42.170Z,10.63
2023-01-18T23:11:14.529Z,9.70
2023-01-18T23:13:42.495Z,10.55
2023-01-18T23:16:51.020Z,10.93
2023-01-18T23:19:17.468Z,10.82
2023-01-18T23:21:44.149Z,11.73
2023-01-18T23:24:10.575Z,11.10
2023-01-18T23:26:36.960Z,10.43
2023-01-18T23:29:03.442Z,11.10
2023-01-18T23:31:29.922Z,10.65
2023-01-18T23:33:56.352Z,10.15
2023-01-18T23:36:23.607Z,10.70
2023-01-18T23:39:08.710Z,10.70
2023-01-18T23:41:54.261Z,11.88
2023-01-18T23:44:39.143Z,11.40
2023-01-18T23:47:23.951Z,10.48
2023-01-18T23:50:08.841Z,10.85
2023-01-18T23:52:53.524Z,11.57
2023-01-18T23:55:19.920Z,11.07
2023-01-18T23:57:46.311Z,10.60
